• Join FlightAware (Why Join?)
  • Login
  • US Flag 
10:10PM EDT


 

Airport Tracker/Info


-or-


 

Live Flight TrackerFlight Track Log ✈ VH-CGT ✈ 30-Sep-2013 ✈ YSBK / BWU - YSBK / BWU

Flight Track Log - Related Links

Times and Time Zones

All times are in EDT time to prevent confusion due to time zone crossing. See the VH-CGT flight status page for this flight to view local times or setup timezone preferences in your user account.

Time Position Orientation Groundspeed Altitude Reporting Facility
EDT Latitude Longitude Course Direction KTS MPH feet Rate Location/Type
01:14AM -33.9127 150.9705 301° West 73 84 700  Level Aus ATC (RADAR)
01:15AM -33.9048 150.9548 301° West 79 91 1,100 600 Climbing Aus ATC (RADAR)
01:15AM -33.9022 150.9489 298° West 78 90 1,300 840 Climbing Aus ATC (RADAR)
01:16AM -33.8949 150.9363 305° West 75 86 1,800 840 Climbing Aus ATC (RADAR)
01:17AM -33.8873 150.9220 303° West 72 83 2,400 900 Climbing Aus ATC (RADAR)
01:17AM -33.8795 150.9072 302° West 73 84 3,000 780 Climbing Aus ATC (RADAR)
01:18AM -33.8736 150.8892 292° West 74 85 3,500 660 Climbing Aus ATC (RADAR)
01:18AM -33.8710 150.8784 286° West 76 87 3,800 420 Climbing Aus ATC (RADAR)
01:20AM -33.8628 150.8483 288° West 73 84 4,300 360 Climbing Aus ATC (RADAR)
01:20AM -33.8592 150.8363 290° West 72 83 4,500 360 Climbing Aus ATC (RADAR)
01:21AM -33.8550 150.8227 290° West 72 83 4,700 420 Climbing Aus ATC (RADAR)
01:21AM -33.8507 150.8054 287° West 70 81 5,100 420 Climbing Aus ATC (RADAR)
01:22AM -33.8472 150.7907 286° West 74 85 5,300 480 Climbing Aus ATC (RADAR)
01:23AM -33.8422 150.7683 285° West 82 94 5,800 540 Climbing Aus ATC (RADAR)
01:23AM -33.8388 150.7575 290° West 80 92 6,000 120 Climbing Aus ATC (RADAR)
01:25AM -33.8286 150.7172 287° West 100 115 6,000  Level Aus ATC (RADAR)
01:25AM -33.8248 150.7020 287° West 109 125 6,000  Level Aus ATC (RADAR)
01:25AM -33.8201 150.6842 288° West 110 127 6,000  Level Aus ATC (RADAR)
01:26AM -33.8148 150.6636 287° West 107 123 6,000  Level Aus ATC (RADAR)
01:27AM -33.8078 150.6409 290° West 103 119 6,000 60 Level Aus ATC (RADAR)
01:27AM -33.8006 150.6223 295° West 101 116 6,100 60 Climbing Aus ATC (RADAR)
01:28AM -33.7926 150.5951 289° West 111 128 6,100  Level Aus ATC (RADAR)
01:28AM -33.7886 150.5800 288° West 110 127 6,100 -120 Level Aus ATC (RADAR)
01:30AM -33.7769 150.5359 288° West 114 131 6,000  Descending Aus ATC (RADAR)
01:30AM -33.7716 150.5180 290° West 110 127 6,100  Climbing Aus ATC (RADAR)
01:30AM -33.7666 150.5036 293° West 110 127 6,000 -120 Descending Aus ATC (RADAR)
01:31AM -33.7608 150.4819 288° West 112 129 6,000  Level Aus ATC (RADAR)
01:32AM -33.7536 150.4556 288° West 107 123 6,000  Level Aus ATC (RADAR)
01:32AM -33.7477 150.4346 289° West 112 129 6,000 60 Level Aus ATC (RADAR)
01:33AM -33.7398 150.4076 289° West 113 130 6,100  Climbing Aus ATC (RADAR)
01:34AM -33.7349 150.3897 288° West 111 128 6,000  Descending Aus ATC (RADAR)
01:35AM -33.7202 150.3379 289° West 111 128 6,100  Climbing Aus ATC (RADAR)
01:35AM -33.7162 150.3228 288° West 112 129 6,100 -120 Level Aus ATC (RADAR)
01:36AM -33.7102 150.3014 289° West 111 128 6,000 -120 Descending Aus ATC (RADAR)
01:37AM -33.7015 150.2813 297° West 114 131 6,000  Level Aus ATC (RADAR)
01:37AM -33.6924 150.2623 300° West 110 127 6,000 -120 Level Aus ATC (RADAR)
01:38AM -33.6797 150.2359 300° West 106 122 5,900 -120 Descending Aus ATC (RADAR)
01:38AM -33.6730 150.2234 302° West 104 120 5,900 60 Level Aus ATC (RADAR)
01:40AM -33.6565 150.1884 300° West 101 116 6,000  Climbing Aus ATC (RADAR)
01:40AM -33.6503 150.1762 301° West 102 117 5,900 120 Descending Aus ATC (RADAR)
01:40AM -33.6446 150.1634 298° West 101 116 6,100 60 Climbing Aus ATC (RADAR)
01:41AM -33.6361 150.1459 300° West 103 119 6,000 -120 Descending Aus ATC (RADAR)
01:42AM -33.6241 150.1199 299° West 104 120 6,000  Level Aus ATC (RADAR)
01:42AM -33.6155 150.1014 299° West 107 123 6,000  Level Aus ATC (RADAR)
01:43AM -33.6051 150.0775 298° West 106 122 6,000 60 Level Aus ATC (RADAR)
01:44AM -33.6000 150.0665 299° West 109 125 6,100 -120 Climbing Aus ATC (RADAR)
01:45AM -33.5811 150.0256 299° West 119 137 5,900 -120 Descending Aus ATC (RADAR)
01:45AM -33.5706 150.0032 299° West 113 130 5,900 180 Level Aus ATC (RADAR)
01:46AM -33.5666 149.9958 302° West 107 123 6,100  Climbing Aus ATC (RADAR)
01:46AM -33.5574 149.9772 301° West 109 125 5,900 -180 Descending Aus ATC (RADAR)
01:47AM -33.5450 149.9532 302° West 113 130 5,900 60 Level Aus ATC (RADAR)
01:48AM -33.5364 149.9343 298° West 108 124 6,000 -120 Climbing Aus ATC (RADAR)
01:48AM -33.5256 149.9078 296° West 117 135 5,800 -120 Descending Aus ATC (RADAR)
01:49AM -33.5198 149.8939 296° West 110 127 5,900 60 Climbing Aus ATC (RADAR)
01:50AM -33.5055 149.8625 299° West 106 122 5,900  Level Aus ATC (RADAR)
01:50AM -33.4997 149.8487 297° West 108 124 5,900 -120 Level Aus ATC (RADAR)
01:51AM -33.4941 149.8355 297° West 106 122 5,800 -120 Descending Aus ATC (RADAR)
01:51AM -33.4862 149.8170 297° West 106 122 5,800 60 Level Aus ATC (RADAR)
01:52AM -33.4766 149.7953 298° West 95 109 5,900 60 Climbing Aus ATC (RADAR)
01:52AM -33.4686 149.7776 298° West 101 116 5,900  Level Aus ATC (RADAR)
01:53AM -33.4554 149.7485 299° West 106 122 5,900  Level Aus ATC (RADAR)
01:54AM -33.4513 149.7410 303° West 105 121 5,900  Level Aus ATC (RADAR)
01:54AM -33.4428 149.7229 299° West 106 122 5,900  Level Aus ATC (RADAR)
01:55AM -33.4281 149.6876 296° West 108 124 5,900  Level Aus ATC (RADAR)
01:56AM -33.4222 149.6742 298° West 107 123 5,900  Level Aus ATC (RADAR)
01:56AM -33.4143 149.6552 296° West 107 123 5,900 -180 Level Aus ATC (RADAR)
01:57AM -33.4055 149.6315 294° West 103 119 5,700 -420 Descending Aus ATC (RADAR)
01:58AM -33.4230 149.6213 206° Southwest 134 154 5,400 -480 Descending Aus ATC (RADAR)
01:58AM -33.4471 149.6163 190° South 133 153 5,200 -360 Descending Aus ATC (RADAR)
01:59AM -33.4672 149.6180 176° South 137 158 5,000 -120 Descending Aus ATC (RADAR)
01:59AM -33.4616 149.6364 70° East 116 133 5,100 120 Climbing Aus ATC (RADAR)
02:00AM -33.4327 149.6511 23° Northeast 115 132 5,200 -120 Climbing Aus ATC (RADAR)
02:01AM -33.4181 149.6549 12° North 123 142 5,000 -120 Descending Aus ATC (RADAR)
02:01AM -33.4011 149.6563 North 111 128 5,100 60 Climbing Aus ATC (RADAR)
02:02AM -33.3797 149.6552 358° North 95 109 5,100  Level Aus ATC (RADAR)
02:03AM -33.3659 149.6550 359° North 98 113 5,100  Level Aus ATC (RADAR)
02:04AM -33.3437 149.6547 359° North 96 110 5,100  Level Aus ATC (RADAR)
02:04AM -33.3328 149.6539 356° North 96 110 5,100  Level Aus ATC (RADAR)
02:05AM -33.3172 149.6535 359° North 97 112 5,100 -300 Level Aus ATC (RADAR)
02:06AM -33.3255 149.6356 241° Southwest 126 145 4,700 -540 Descending Aus ATC (RADAR)
02:06AM -33.3387 149.6411 161° South 122 140 4,400 -600 Descending Aus ATC (RADAR)
02:06AM -33.3470 149.6432 168° South 123 142 4,300 -60 Descending Aus ATC (RADAR)
02:08AM -33.3539 149.6590 118° Southeast  Level Estimated
02:15AM -33.3905 149.7427 118° Southeast  Level Estimated
02:15AM -33.4272 149.6929 118° Southeast 108 124 4,300  Level Aus ATC (RADAR)
02:16AM -33.4497 149.7346 123° Southeast 109 125 5,000 480 Climbing Aus ATC (RADAR)
02:16AM -33.4520 149.7398 117° Southeast 108 124 5,100 420 Climbing Aus ATC (RADAR)
02:17AM -33.4617 149.7601 120° Southeast 103 119 5,400 480 Climbing Aus ATC (RADAR)
02:17AM -33.4716 149.7823 118° Southeast 102 117 5,800 480 Climbing Aus ATC (RADAR)
02:18AM -33.4805 149.7999 121° Southeast 105 121 6,100 480 Climbing Aus ATC (RADAR)
02:19AM -33.4914 149.8217 121° Southeast 102 117 6,500 480 Climbing Aus ATC (RADAR)
02:19AM -33.4978 149.8336 123° Southeast 102 117 6,700 360 Climbing Aus ATC (RADAR)
02:20AM -33.5061 149.8506 120° Southeast 101 116 6,900 120 Climbing Aus ATC (RADAR)
02:21AM -33.5210 149.8855 117° Southeast 125 144 6,900  Level Aus ATC (RADAR)
02:21AM -33.5280 149.9015 118° Southeast 128 147 6,900 60 Level Aus ATC (RADAR)
02:22AM -33.5381 149.9237 119° Southeast 128 147 7,000 60 Climbing Aus ATC (RADAR)
02:23AM -33.5517 149.9535 119° Southeast 134 154 7,000  Level Aus ATC (RADAR)
02:23AM -33.5641 149.9793 120° Southeast 132 152 7,000 -120 Level Aus ATC (RADAR)
02:24AM -33.5758 150.0063 117° Southeast 134 154 6,900 -120 Descending Aus ATC (RADAR)
02:24AM -33.5829 150.0233 116° Southeast 133 153 6,900 60 Level Aus ATC (RADAR)
02:25AM -33.5933 150.0459 119° Southeast 131 151 7,000  Climbing Aus ATC (RADAR)
02:26AM -33.6120 150.0836 121° Southeast 130 150 6,900  Descending Aus ATC (RADAR)
02:26AM -33.6216 150.1024 122° Southeast 129 148 7,000  Climbing Aus ATC (RADAR)
02:27AM -33.6325 150.1248 120° Southeast 130 150 6,900 -120 Descending Aus ATC (RADAR)
02:27AM -33.6419 150.1476 116° Southeast 128 147 6,900 60 Level Aus ATC (RADAR)
02:28AM -33.6519 150.1697 118° Southeast 127 146 7,000  Climbing Aus ATC (RADAR)
02:29AM -33.6624 150.1923 119° Southeast 131 151 6,900  Descending Aus ATC (RADAR)
02:29AM -33.6751 150.2169 122° Southeast 127 146 7,000 60 Climbing Aus ATC (RADAR)
02:30AM -33.6862 150.2384 122° Southeast 128 147 7,000  Level Aus ATC (RADAR)
02:31AM -33.7031 150.2733 120° Southeast 131 151 7,000 -120 Level Aus ATC (RADAR)
02:31AM -33.7115 150.2936 116° Southeast 133 153 6,900 -120 Descending Aus ATC (RADAR)
02:32AM -33.7201 150.3180 113° Southeast 132 152 6,900 -120 Level Aus ATC (RADAR)
02:33AM -33.7297 150.3497 110° East 132 152 6,800 -240 Descending Aus ATC (RADAR)
02:33AM -33.7373 150.3753 110° East 136 157 6,600 -540 Descending Aus ATC (RADAR)
02:34AM -33.7449 150.4003 110° East 133 153 6,200 -600 Descending Aus ATC (RADAR)
02:34AM -33.7531 150.4296 109° East 132 152 5,900 -600 Descending Aus ATC (RADAR)
02:35AM -33.7604 150.4548 109° East 134 154 5,500 -660 Descending Aus ATC (RADAR)
02:36AM -33.7728 150.4983 109° East 132 152 4,900 -660 Descending Aus ATC (RADAR)
02:36AM -33.7781 150.5161 110° East 132 152 4,600 -420 Descending Aus ATC (RADAR)
02:37AM -33.7861 150.5400 112° Southeast 128 147 4,500 -120 Descending Aus ATC (RADAR)
02:38AM -33.7971 150.5701 114° Southeast 116 133 4,500  Level Aus ATC (RADAR)
02:38AM -33.8048 150.5899 115° Southeast 111 128 4,500 -120 Level Aus ATC (RADAR)
02:39AM -33.8145 150.6175 113° Southeast 120 138 4,400 -180 Descending Aus ATC (RADAR)
02:40AM -33.8196 150.6344 110° East 125 144 4,300 -420 Descending Aus ATC (RADAR)
02:40AM -33.8274 150.6582 112° Southeast 129 148 4,000 -720 Descending Aus ATC (RADAR)
02:41AM -33.8408 150.6932 115° Southeast 133 153 3,300 -900 Descending Aus ATC (RADAR)
02:41AM -33.8472 150.7108 114° Southeast 135 155 2,900 -840 Descending Aus ATC (RADAR)
02:42AM -33.8544 150.7361 109° East 130 150 2,500 -480 Descending Aus ATC (RADAR)
02:43AM -33.8578 150.7652 98° East 110 127 2,300 -240 Descending Aus ATC (RADAR)
02:43AM -33.8530 150.7865 75° East 110 127 2,200 -180 Descending Aus ATC (RADAR)
02:44AM -33.8483 150.8097 76° East 119 137 2,100 -180 Descending Aus ATC (RADAR)
02:45AM -33.8440 150.8319 77° East 115 132 2,000 -120 Descending Aus ATC (RADAR)
02:45AM -33.8404 150.8495 76° East 108 124 2,000  Level Aus ATC (RADAR)
02:46AM -33.8357 150.8898 82° East 115 132 2,000  Level Aus ATC (RADAR)
02:47AM -33.8436 150.9043 123° Southeast 123 142 2,000  Level Aus ATC (RADAR)
02:47AM -33.8551 150.9229 127° Southeast 117 135 2,000 -180 Level Aus ATC (RADAR)
02:48AM -33.8708 150.9459 130° Southeast 121 139 1,800 -420 Descending Aus ATC (RADAR)
02:48AM -33.8829 150.9659 126° Southeast 122 140 1,500 -300 Descending Aus ATC (RADAR)
02:49AM -33.8933 150.9836 125° Southeast 111 128 1,500 -180 Level Aus ATC (RADAR)
02:50AM -33.9022 151.0009 122° Southeast 104 120 1,300 -180 Descending Aus ATC (RADAR)
02:50AM -33.9112 151.0190 121° Southeast 106 122 1,300 -420 Level Aus ATC (RADAR)
02:51AM -33.9326 151.0117 196° South 89 102 600 -720 Descending Aus ATC (RADAR)
02:52AM -33.9290 151.0022 294° West 78 90 300 -720 Descending Aus ATC (RADAR)